M I D A S
Marine Information and Data Acquisition System
Tripno 716 of the Zeeleeuw from 2004-05-13 06:35:09 to 2004-05-13 14:56:05
Back to CruiseResearch ActivitiesStationsMapUnderway DataData graphs

EquipmentUnitsComment
TimeDGPSUTC
LatitudeDGPSDM.mWGS84
LongitudeDGPSDM.mWGS84
HeadingGyrodeg 
SOGDGPSknotsSpeed over ground
COGDGPSdegCourse over ground
DepthEcho soundermeters200 kHz
Missing or incorrect values are displayed as -999
Navigation data collected by the RV Zeeleeuw from 2004-05-13 06:35:09 to 2004-05-13 14:56:05
Time Latitude Longitude Heading SOG COG Depth
2004-05-13 06:36:18 51°13.603 2°56.067 116.8 2 293 -999
2004-05-13 06:37:17 51°13.576 2°56.113 143.6 3.8 139 11.2
2004-05-13 06:38:17 51°13.536 2°56.186 120.9 3.6 115 11.8
2004-05-13 06:39:17 51°13.538 2°56.239 51.9 1.2 221 11.3
2004-05-13 06:40:18 51°13.543 2°56.234 10.7 1.2 11 -999
2004-05-13 06:41:17 51°13.525 2°56.239 347.3 1 320 -999
2004-05-13 06:42:17 51°13.556 2°56.159 306.1 5 299 11.4
2004-05-13 06:43:17 51°13.611 2°56.012 309 7.1 304 11.2
2004-05-13 06:44:17 51°13.685 2°55.851 312.5 7.7 307 11.3
2004-05-13 06:45:17 51°13.771 2°55.698 324.3 7.8 320 11.3
2004-05-13 06:46:17 51°13.884 2°55.602 347 7.7 341 11.5
2004-05-13 06:47:17 51°14.007 2°55.53 343.3 7.9 337 13.5
2004-05-13 06:48:20 51°14.141 2°55.412 333.1 10.2 326 13
2004-05-13 06:49:28 51°14.297 2°55.182 316.7 12.3 310 12.8
2004-05-13 06:50:25 51°14.426 2°54.936 320.2 12.9 319 13
2004-05-13 06:51:28 51°14.604 2°54.716 325.6 12.8 325 11.9
2004-05-13 06:52:31 51°14.795 2°54.521 332 13.1 330 11.8
2004-05-13 06:53:31 51°14.984 2°54.351 333.7 13.1 334 10.8
2004-05-13 06:54:31 51°15.187 2°54.218 341.4 13.3 337 11.3
2004-05-13 06:55:37 51°15.409 2°54.076 340.2 13.1 338 11.8
2004-05-13 06:56:37 51°15.611 2°53.947 340.8 13.2 339 12.5
2004-05-13 06:57:37 51°15.815 2°53.82 343.2 13.3 341 13.5
2004-05-13 06:58:37 51°16.024 2°53.709 343.3 13.4 341 13.8
2004-05-13 06:59:37 51°16.235 2°53.596 343.3 13.4 341 14.2
2004-05-13 07:00:37 51°16.445 2°53.482 343 13.3 341 14.4
2004-05-13 07:01:37 51°16.653 2°53.367 343.4 13.4 341 13.9
2004-05-13 07:02:37 51°16.862 2°53.25 343.3 13.3 341 12.3
2004-05-13 07:03:37 51°17.07 2°53.141 346.9 13.4 345 10.9
2004-05-13 07:04:37 51°17.289 2°53.07 355 13.4 355 11.5
2004-05-13 07:05:37 51°17.51 2°53.154 27.3 14.1 24 12
2004-05-13 07:06:37 51°17.715 2°53.336 33.6 14.1 30 12
2004-05-13 07:07:37 51°17.92 2°53.519 31.8 14.1 28 12.2
2004-05-13 07:08:37 51°18.128 2°53.697 31.3 14.1 28 12.7
2004-05-13 07:09:37 51°18.33 2°53.88 38.2 14 36 12.7
2004-05-13 07:10:37 51°18.51 2°54.122 47 14.1 46 13.2
2004-05-13 07:11:37 51°18.665 2°54.411 54.9 14.4 52 13.1
2004-05-13 07:12:37 51°18.808 2°54.715 57.1 14.3 53 13.1
2004-05-13 07:13:37 51°18.954 2°55.015 56.3 14.3 52 13.3
2004-05-13 07:14:37 51°19.1 2°55.314 56.2 14.3 53 13.6
2004-05-13 07:15:37 51°19.242 2°55.619 58 14.4 52 13.4
2004-05-13 07:16:37 51°19.377 2°55.934 62 14.3 57 13.4
2004-05-13 07:17:37 51°19.506 2°56.256 61.8 14.4 57 13.2
2004-05-13 07:18:37 51°19.636 2°56.578 61.5 14.3 56 13.7
2004-05-13 07:19:37 51°19.766 2°56.901 61.6 14.3 57 13.3
2004-05-13 07:20:37 51°19.893 2°57.221 60.8 14.5 57 13.7
2004-05-13 07:21:35 51°20.019 2°57.534 61.1 14.4 58 13.2
2004-05-13 07:22:37 51°20.153 2°57.868 61.4 14.6 59 13.3
2004-05-13 07:23:39 51°20.286 2°58.204 62.4 14.6 59 13.4
2004-05-13 07:24:39 51°20.41 2°58.538 63.8 14.7 58 13.3
2004-05-13 07:25:39 51°20.533 2°58.876 63.2 14.6 60 13.2
2004-05-13 07:26:39 51°20.658 2°59.211 63.4 14.7 59 13.4
2004-05-13 07:27:43 51°20.788 2°59.569 63.3 14.6 61 13.2
2004-05-13 07:28:43 51°20.912 2°59.905 63.3 14.6 60 13.2
2004-05-13 07:29:43 51°21.035 3°0.24 63.7 14.6 60 13.2
2004-05-13 07:30:43 51°21.158 3°0.575 63.2 14.5 59 13.3
2004-05-13 07:31:43 51°21.282 3°0.909 63.6 14.5 59 13.6
2004-05-13 07:32:43 51°21.406 3°1.241 59.1 14.4 56 13.3
2004-05-13 07:33:43 51°21.568 3°1.522 45.3 14.4 43 13.5
2004-05-13 07:34:43 51°21.742 3°1.78 45.4 14.1 43 13.4
2004-05-13 07:35:43 51°21.916 3°2.04 45.5 14.3 43 13.6
2004-05-13 07:36:43 51°22.088 3°2.303 45.3 14.4 43 13.8
2004-05-13 07:37:43 51°22.261 3°2.564 44.2 14.1 41 13.6
2004-05-13 07:38:43 51°22.441 3°2.807 41.8 14.3 40 13.7
2004-05-13 07:39:43 51°22.62 3°3.05 42 14.1 40 13.8
2004-05-13 07:40:43 51°22.8 3°3.294 42 14.1 40 13.4
2004-05-13 07:41:42 51°22.974 3°3.536 42.4 14.3 41 13.9
2004-05-13 07:42:43 51°23.157 3°3.785 42.1 14.1 41 14.2
2004-05-13 07:43:43 51°23.348 3°4.003 36.3 14.3 35 14.8
2004-05-13 07:44:43 51°23.55 3°4.199 29.2 13.8 29 14.4
2004-05-13 07:45:43 51°23.756 3°4.382 29.6 14.3 29 14.8
2004-05-13 07:46:42 51°23.958 3°4.564 29.7 14.2 28 16.3
2004-05-13 07:47:43 51°24.17 3°4.756 30.6 14.3 30 20.5
2004-05-13 07:48:42 51°24.371 3°4.939 30.2 14 29 18.6
2004-05-13 07:49:43 51°24.577 3°5.129 30.8 14.1 30 15.1
2004-05-13 07:50:43 51°24.78 3°5.315 30 14.1 29 15.2
2004-05-13 07:51:43 51°24.984 3°5.499 30.2 14.1 29 14.5
2004-05-13 07:52:43 51°25.182 3°5.703 34.8 14.1 33 13.6
2004-05-13 07:53:43 51°25.365 3°5.944 44.6 14.3 44 13.4
2004-05-13 07:54:43 51°25.529 3°6.221 51.6 14.3 50 12.6
2004-05-13 07:55:42 51°25.656 3°6.538 63.1 14.3 60 12.3
2004-05-13 07:56:48 51°25.804 3°6.885 58.1 14.4 54 12.3
2004-05-13 07:57:45 51°25.935 3°7.182 57.7 14.3 55 12
2004-05-13 07:58:48 51°26.08 3°7.512 58 14.3 55 10.6
2004-05-13 07:59:47 51°26.217 3°7.818 57.7 14.2 55 11.8
2004-05-13 08:00:48 51°26.33 3°8.072 54.3 8.7 51 12
2004-05-13 08:01:47 51°26.392 3°8.18 46.8 3.8 52 12.9
2004-05-13 08:02:48 51°26.41 3°8.259 69.6 2.9 77 13
2004-05-13 08:03:47 51°26.417 3°8.327 74 3.3 79 13
2004-05-13 08:04:47 51°26.433 3°8.43 72.5 4.1 74 12.9
2004-05-13 08:05:47 51°26.448 3°8.529 74.3 3.6 76 13
2004-05-13 08:06:48 51°26.463 3°8.618 69.4 3.4 75 13.3
2004-05-13 08:07:48 51°26.477 3°8.696 68.5 3.2 77 12.9
2004-05-13 08:08:47 51°26.494 3°8.77 62.7 3 61 13
2004-05-13 08:09:47 51°26.512 3°8.844 59.2 3 73 13
2004-05-13 08:10:48 51°26.532 3°8.914 55.4 2.8 66 12.9
2004-05-13 08:11:48 51°26.553 3°8.985 55.5 3.2 67 13
2004-05-13 08:12:47 51°26.577 3°9.06 54 3.2 65 12.9
2004-05-13 08:13:48 51°26.604 3°9.137 48.4 3.3 57 13
2004-05-13 08:14:47 51°26.634 3°9.209 45.1 3.2 53 12.9
2004-05-13 08:15:48 51°26.665 3°9.275 41.2 3.1 53 12.8
2004-05-13 08:16:47 51°26.697 3°9.337 39.5 3 46 12.8
2004-05-13 08:17:47 51°26.733 3°9.4 40 3.2 50 12.4
2004-05-13 08:18:48 51°26.77 3°9.465 39.9 3.3 48 12.7
2004-05-13 08:19:48 51°26.808 3°9.531 41.6 3.3 46 12.6
2004-05-13 08:20:47 51°26.845 3°9.598 43.4 3.4 48 12.4
2004-05-13 08:21:48 51°26.882 3°9.67 45 3.4 52 12.7
2004-05-13 08:22:48 51°26.918 3°9.738 42.9 3.2 49 12.4
2004-05-13 08:23:48 51°26.951 3°9.805 45.2 3.2 53 12.6
2004-05-13 08:24:48 51°26.983 3°9.871 45.4 3.1 55 12.5
2004-05-13 08:25:48 51°27.011 3°9.937 47.9 2.8 51 12.4
2004-05-13 08:26:48 51°27.041 3°10 43.5 3 52 12.6
2004-05-13 08:27:48 51°27.073 3°10.059 41.1 3 52 12.8
2004-05-13 08:28:48 51°27.105 3°10.117 41.9 3 50 12.6
2004-05-13 08:29:47 51°27.137 3°10.175 43 2.9 52 12.4
2004-05-13 08:30:48 51°27.17 3°10.233 40.6 2.9 48 12.7
2004-05-13 08:31:47 51°27.203 3°10.289 42 2.8 45 12.6
2004-05-13 08:32:48 51°27.237 3°10.35 42.6 3 50 12.6
2004-05-13 08:33:48 51°27.267 3°10.411 47.3 2.8 52 12.5
2004-05-13 08:34:47 51°27.297 3°10.471 45.4 2.9 52 12.5
2004-05-13 08:35:48 51°27.328 3°10.531 42.9 3 53 12.4
2004-05-13 08:36:48 51°27.362 3°10.589 41.3 3 46 12.4
2004-05-13 08:37:47 51°27.397 3°10.647 43.8 3.1 50 12.4
2004-05-13 08:38:47 51°27.426 3°10.716 58.4 3.1 53 12.2
2004-05-13 08:39:48 51°27.451 3°10.794 62.7 3.3 65 12.4
2004-05-13 08:40:46 51°27.474 3°10.874 67.5 3.5 71 12.2
2004-05-13 08:41:48 51°27.492 3°10.945 68.3 2.5 66 12.3
2004-05-13 08:42:46 51°27.504 3°10.996 70.4 1.9 71 12.2
2004-05-13 08:43:47 51°27.514 3°11.066 92 3.5 87 12.2
2004-05-13 08:44:47 51°27.475 3°11.14 174.1 3.8 171 11.9
2004-05-13 08:45:46 51°27.414 3°11.114 214.4 3.8 203 11.7
2004-05-13 08:46:47 51°27.369 3°11.059 232.4 3.1 243 11.7
2004-05-13 08:47:47 51°27.345 3°10.996 251.4 2.7 250 11.9
2004-05-13 08:48:47 51°27.336 3°10.928 267.4 2.5 269 12.1
2004-05-13 08:49:47 51°27.339 3°10.863 273.3 2.4 271 12.2
2004-05-13 08:50:46 51°27.335 3°10.802 256.3 2.2 252 12
2004-05-13 08:51:48 51°27.319 3°10.743 246.5 2.4 242 12.3
2004-05-13 08:52:48 51°27.306 3°10.685 256.2 2.4 253 12.2
2004-05-13 08:53:47 51°27.297 3°10.625 260.6 2.3 254 12.2
2004-05-13 08:54:48 51°27.289 3°10.563 259.8 2.3 251 12.3
2004-05-13 08:55:48 51°27.281 3°10.502 257.6 2.4 262 12.1
2004-05-13 08:56:47 51°27.271 3°10.442 253.9 2.3 256 12.5
2004-05-13 08:57:48 51°27.257 3°10.383 252.3 2.4 244 12.5
2004-05-13 08:58:45 51°27.244 3°10.323 252.3 2.4 253 12.5
2004-05-13 08:59:47 51°27.231 3°10.26 252.3 2.5 256 12.6
2004-05-13 09:00:47 51°27.218 3°10.198 253.3 2.4 251 12.9
2004-05-13 09:01:47 51°27.203 3°10.139 247 2.5 245 12.7
2004-05-13 09:02:47 51°27.185 3°10.079 244.4 2.5 242 12.5
2004-05-13 09:03:47 51°27.165 3°10.023 243.5 2.5 237 12.8
2004-05-13 09:04:47 51°27.144 3°9.964 241 2.5 246 12.6
2004-05-13 09:05:47 51°27.123 3°9.908 242 2.5 236 12.6
2004-05-13 09:06:48 51°27.102 3°9.849 240.7 2.5 241 12.7
2004-05-13 09:07:48 51°27.081 3°9.792 243.8 2.5 240 12.7
2004-05-13 09:08:47 51°27.062 3°9.734 244.3 2.5 242 12.7
2004-05-13 09:09:47 51°27.043 3°9.677 245.3 2.4 244 12.8
2004-05-13 09:10:47 51°27.027 3°9.618 247.4 2.4 256 12.7
2004-05-13 09:11:47 51°27.011 3°9.56 246.9 2.4 249 12.7
2004-05-13 09:12:47 51°26.995 3°9.501 245.1 2.4 237 12.6
2004-05-13 09:13:46 51°26.976 3°9.447 241.6 2.4 236 12.4
2004-05-13 09:14:48 51°26.957 3°9.389 243.7 2.4 242 12.5
2004-05-13 09:15:48 51°26.941 3°9.332 248.6 2.3 243 12.4
2004-05-13 09:16:48 51°26.932 3°9.272 258.6 2.2 251 12.4
2004-05-13 09:17:48 51°26.933 3°9.212 269.5 2.4 281 12.6
2004-05-13 09:18:48 51°26.94 3°9.158 278.8 1.7 285 12.8
2004-05-13 09:19:47 51°26.95 3°9.126 285.9 1.1 300 13.1
2004-05-13 09:20:47 51°26.96 3°9.107 290.1 0.8 317 12.9
2004-05-13 09:21:47 51°26.968 3°9.099 287.3 0.4 337 13
2004-05-13 09:22:48 51°26.975 3°9.082 274.7 1.1 283 13.2
2004-05-13 09:23:48 51°26.969 3°9.035 237.7 2.7 234 13.2
2004-05-13 09:24:48 51°26.899 3°9.063 148.8 6.5 140 13
2004-05-13 09:25:47 51°26.776 3°9.241 144.1 12.1 143 12.3
2004-05-13 09:26:47 51°26.604 3°9.461 147.2 14 140 12
2004-05-13 09:27:49 51°26.427 3°9.692 146.6 13.4 140 11.4
2004-05-13 09:28:46 51°26.262 3°9.905 146 14.5 141 10.5
2004-05-13 09:29:48 51°26.082 3°10.128 149.3 13.6 141 10
2004-05-13 09:30:48 51°25.914 3°10.361 139.9 12.7 137 9.8
2004-05-13 09:31:48 51°25.752 3°10.604 143.1 13.3 138 9.3
2004-05-13 09:32:47 51°25.602 3°10.857 132 13.5 126 9.4
2004-05-13 09:33:48 51°25.492 3°11.182 115.5 14 109 10.6
2004-05-13 09:34:48 51°25.442 3°11.541 106.8 13.7 105 11.4
2004-05-13 09:35:48 51°25.394 3°11.904 107.1 14.1 97 11.8
2004-05-13 09:36:47 51°25.341 3°12.258 109.1 13.7 105 11.6
2004-05-13 09:37:47 51°25.286 3°12.622 109.3 13.9 102 12
2004-05-13 09:38:48 51°25.229 3°12.989 107.4 13.3 105 12.5
2004-05-13 09:39:48 51°25.195 3°13.246 104.5 7.6 98 13.3
2004-05-13 09:40:48 51°25.202 3°13.364 78.2 2.9 83 13.4
2004-05-13 09:41:47 51°25.219 3°13.445 69.7 3.4 72 13.3
2004-05-13 09:42:53 51°25.244 3°13.543 70.7 3.7 73 13.2
2004-05-13 09:43:53 51°25.263 3°13.636 75.2 3.6 70 13.1
2004-05-13 09:44:57 51°25.281 3°13.733 80.4 3.6 80 12.8
2004-05-13 09:45:57 51°25.29 3°13.827 92.3 3.4 81 13
2004-05-13 09:46:57 51°25.292 3°13.911 95.1 3 85 12.7
2004-05-13 09:47:57 51°25.29 3°13.989 98.1 2.9 83 13
2004-05-13 09:48:57 51°25.288 3°14.063 99 2.7 92 12.9
2004-05-13 09:49:57 51°25.287 3°14.134 97.3 2.6 86 13
2004-05-13 09:50:57 51°25.286 3°14.204 96.7 2.7 85 13.1
2004-05-13 09:51:57 51°25.286 3°14.273 97.4 2.7 91 13
2004-05-13 09:52:57 51°25.284 3°14.342 98.7 2.6 91 13.1
2004-05-13 09:53:57 51°25.282 3°14.41 99.6 2.6 101 12.9
2004-05-13 09:54:57 51°25.28 3°14.48 99.8 2.6 90 13.2
2004-05-13 09:55:57 51°25.278 3°14.55 99.4 2.7 98 13.1
2004-05-13 09:56:57 51°25.274 3°14.619 101.1 2.6 93 13.2
2004-05-13 09:57:55 51°25.27 3°14.687 97.8 2.7 90 13.3
2004-05-13 09:58:57 51°25.269 3°14.759 95.8 2.6 93 13.2
2004-05-13 09:59:57 51°25.269 3°14.826 94.5 2.5 86 13.2
2004-05-13 10:01:02 51°25.271 3°14.899 92.1 2.5 85 13.3
2004-05-13 10:02:02 51°25.273 3°14.967 91 2.5 85 13.3
2004-05-13 10:03:02 51°25.276 3°15.035 90.2 2.5 89 13.3
2004-05-13 10:04:02 51°25.278 3°15.101 92.6 2.5 91 13.4
2004-05-13 10:05:01 51°25.278 3°15.166 93.1 2.5 82 13.3
2004-05-13 10:06:06 51°25.28 3°15.236 91.5 2.4 85 13.2
2004-05-13 10:07:11 51°25.284 3°15.306 91 2.5 78 13.2
2004-05-13 10:08:10 51°25.287 3°15.369 90.4 2.4 82 13.1
2004-05-13 10:09:11 51°25.29 3°15.433 89.9 2.4 86 13.1
2004-05-13 10:10:11 51°25.293 3°15.494 89.4 2.3 79 13
2004-05-13 10:11:13 51°25.298 3°15.556 89.2 2.2 83 12.8
2004-05-13 10:12:14 51°25.301 3°15.617 89.9 2.3 91 12.8
2004-05-13 10:13:14 51°25.305 3°15.676 88.8 2.2 83 12.6
2004-05-13 10:14:13 51°25.31 3°15.735 89 2.2 85 12.7
2004-05-13 10:15:14 51°25.315 3°15.793 90.1 2.2 83 12.7
2004-05-13 10:16:14 51°25.318 3°15.851 90.5 2.2 85 12.7
2004-05-13 10:17:15 51°25.322 3°15.911 89.6 2.2 81 12.5
2004-05-13 10:18:14 51°25.325 3°15.969 90.5 2.2 88 12.4
2004-05-13 10:19:14 51°25.327 3°16.033 95.4 2.5 88 12.6
2004-05-13 10:20:13 51°25.324 3°16.101 103.2 2.7 99 12.5
2004-05-13 10:21:14 51°25.316 3°16.175 109.4 3 97 12.6
2004-05-13 10:22:14 51°25.29 3°16.26 137.6 4.5 140 12.8
2004-05-13 10:23:14 51°25.213 3°16.279 199.3 5.3 201 13.8
2004-05-13 10:24:14 51°25.163 3°16.179 254 4 254 14.5
2004-05-13 10:25:13 51°25.155 3°16.101 270.1 2.3 260 14.8
2004-05-13 10:26:14 51°25.156 3°16.049 280.8 1.6 282 14.7
2004-05-13 10:27:13 51°25.162 3°16.006 292.5 3.1 290 14.8
2004-05-13 10:28:14 51°25.243 3°15.91 348.6 8.5 351 13.4
2004-05-13 10:29:14 51°25.355 3°16.037 73.2 9.4 76 12
2004-05-13 10:30:14 51°25.295 3°16.215 153 5.5 148 12.7
2004-05-13 10:31:14 51°25.229 3°16.229 201.7 3.6 203 13.4
2004-05-13 10:32:14 51°25.197 3°16.159 250.1 3.3 249 13.9
2004-05-13 10:33:14 51°25.181 3°16.075 261.3 3.2 256 14.4
2004-05-13 10:34:14 51°25.177 3°15.988 272.6 3.3 272 14.5
2004-05-13 10:35:14 51°25.181 3°15.9 277.2 3.2 275 14.3
2004-05-13 10:36:14 51°25.182 3°15.815 272.8 3.2 272 14.4
2004-05-13 10:37:14 51°25.179 3°15.732 269.4 3.1 266 14.4
2004-05-13 10:38:15 51°25.174 3°15.65 268.9 3 264 14.3
2004-05-13 10:39:14 51°25.17 3°15.567 270 3.2 267 14.4
2004-05-13 10:40:14 51°25.167 3°15.482 271 3.3 266 14.4
2004-05-13 10:41:14 51°25.164 3°15.395 270.8 3.3 267 14.6
2004-05-13 10:42:13 51°25.16 3°15.309 270.9 3.3 265 14.6
2004-05-13 10:43:14 51°25.157 3°15.222 270.7 3.3 269 14.6
2004-05-13 10:44:13 51°25.151 3°15.137 270.5 3.3 265 14.6
2004-05-13 10:45:14 51°25.146 3°15.049 269.5 3.3 264 14.6
2004-05-13 10:46:14 51°25.14 3°14.963 270.7 3.2 265 14.5
2004-05-13 10:47:13 51°25.134 3°14.88 270.6 3.2 264 14.4
2004-05-13 10:48:21 51°25.129 3°14.783 270.6 3.3 263 14.4
2004-05-13 10:49:20 51°25.123 3°14.698 270.4 3.3 263 14.5
2004-05-13 10:50:19 51°25.118 3°14.614 270.8 3.2 263 14.4
2004-05-13 10:51:21 51°25.115 3°14.527 271.3 3.1 265 14.5
2004-05-13 10:52:21 51°25.111 3°14.444 271.2 3.1 264 14.4
2004-05-13 10:53:22 51°25.107 3°14.359 270.6 3.1 263 14.3
2004-05-13 10:54:22 51°25.102 3°14.276 269.4 3.1 262 14
2004-05-13 10:55:22 51°25.097 3°14.194 270 3.1 268 13.9
2004-05-13 10:56:22 51°25.094 3°14.111 270.9 3 268 13.9
2004-05-13 10:57:22 51°25.091 3°14.031 270.4 3 267 14
2004-05-13 10:58:25 51°25.089 3°13.945 271.9 3.1 268 14
2004-05-13 10:59:25 51°25.087 3°13.866 270 3 266 13.9
2004-05-13 11:00:25 51°25.083 3°13.784 269.1 3.1 265 13.9
2004-05-13 11:01:25 51°25.079 3°13.7 269.7 3.1 269 14
2004-05-13 11:02:30 51°25.074 3°13.609 269.8 3.1 267 14.1
2004-05-13 11:03:30 51°25.071 3°13.526 270.4 3.2 267 14.1
2004-05-13 11:04:29 51°25.067 3°13.441 269.9 3.2 265 14
2004-05-13 11:05:31 51°25.065 3°13.35 272 3.3 269 13.8
2004-05-13 11:06:31 51°25.062 3°13.262 272.3 3.2 269 13.7
2004-05-13 11:07:30 51°25.059 3°13.177 273.1 3.3 263 13.5
2004-05-13 11:08:30 51°25.056 3°13.088 272.3 3.5 269 13.4
2004-05-13 11:09:30 51°25.054 3°13.007 274 2.7 261 13.3
2004-05-13 11:10:29 51°25.053 3°12.944 276.5 2.2 259 13.3
2004-05-13 11:11:30 51°25.051 3°12.893 277.7 2 265 13.2
2004-05-13 11:12:31 51°25.054 3°12.708 282.6 11 277 12.7
2004-05-13 11:13:29 51°25.113 3°12.386 285.3 13 270 11.8
2004-05-13 11:14:29 51°25.055 3°12.047 244.3 13.5 240 11.7
2004-05-13 11:15:30 51°24.894 3°11.791 221.1 13.7 217 12.5
2004-05-13 11:16:29 51°24.731 3°11.549 234.1 13.5 232 13.4
2004-05-13 11:17:30 51°24.597 3°11.242 237.7 14 236 14
2004-05-13 11:18:29 51°24.468 3°10.941 237.3 14 235 16.2
2004-05-13 11:19:29 51°24.335 3°10.637 237.4 13.8 235 18.5
2004-05-13 11:20:31 51°24.202 3°10.322 238 13.8 236 18.8
2004-05-13 11:21:31 51°24.071 3°10.022 235.9 13.9 232 18.8
2004-05-13 11:22:30 51°23.921 3°9.752 230 13.8 226 17
2004-05-13 11:23:29 51°23.757 3°9.506 222.1 13.5 219 15.2
2004-05-13 11:24:31 51°23.577 3°9.269 221.3 13.9 222 15.1
2004-05-13 11:25:29 51°23.408 3°9.039 222.8 13.8 223 18.6
2004-05-13 11:26:31 51°23.229 3°8.794 222.2 13.6 220 13.7
2004-05-13 11:27:30 51°23.058 3°8.562 221.3 14.3 222 13
2004-05-13 11:28:31 51°22.881 3°8.316 222.7 14 224 13.3
2004-05-13 11:29:30 51°22.716 3°8.064 228.3 14 227 13.4
2004-05-13 11:30:29 51°22.556 3°7.801 228.7 13.7 225 13.3
2004-05-13 11:31:31 51°22.386 3°7.532 225.8 13.5 225 13.1
2004-05-13 11:32:29 51°22.227 3°7.278 226.5 14.2 223 12.8
2004-05-13 11:33:31 51°22.059 3°6.998 229.1 14.1 228 12.5
2004-05-13 11:34:30 51°21.896 3°6.735 227.9 13.7 224 12.1
2004-05-13 11:35:31 51°21.727 3°6.468 226.1 14.2 225 11.6
2004-05-13 11:36:29 51°21.583 3°6.19 240.4 14.3 238 11
2004-05-13 11:37:31 51°21.457 3°5.859 241.3 14 239 10.7
2004-05-13 11:38:30 51°21.337 3°5.544 241.6 14.2 237 10.4
2004-05-13 11:39:30 51°21.214 3°5.223 242.6 14.3 241 10
2004-05-13 11:40:31 51°21.099 3°4.889 243.7 14.1 244 9.9
2004-05-13 11:41:30 51°20.988 3°4.568 242.2 14 241 9.6
2004-05-13 11:42:31 51°20.875 3°4.235 243.3 13.8 240 9.5
2004-05-13 11:43:30 51°20.763 3°3.915 243.1 13.9 238 9.4
2004-05-13 11:44:30 51°20.651 3°3.591 243.3 13.7 240 9.1
2004-05-13 11:45:29 51°20.541 3°3.271 242.3 14.2 242 9
2004-05-13 11:46:31 51°20.423 3°2.937 242.7 13.9 242 8.9
2004-05-13 11:47:30 51°20.336 3°2.62 246.5 10.7 242 8.8
2004-05-13 11:48:30 51°20.271 3°2.44 248.2 5.4 245 8.9
2004-05-13 11:49:29 51°20.251 3°2.36 252.3 1.8 238 8.7
2004-05-13 11:50:31 51°20.236 3°2.319 252.2 1.7 228 8.9
2004-05-13 11:51:31 51°20.223 3°2.276 258.4 2.2 238 9
2004-05-13 11:52:29 51°20.208 3°2.196 262.4 3.8 265 8.8
2004-05-13 11:53:31 51°20.189 3°2.098 253.8 3.6 247 8.8
2004-05-13 11:54:29 51°20.164 3°2.019 243.1 3.4 232 8.9
2004-05-13 11:55:29 51°20.134 3°1.946 241.6 3.2 242 8.8
2004-05-13 11:56:31 51°20.11 3°1.867 253.4 3.1 253 8.5
2004-05-13 11:57:31 51°20.094 3°1.788 264.1 3.2 242 8.7
2004-05-13 11:58:30 51°20.085 3°1.711 268.8 3.1 262 8.6
2004-05-13 11:59:31 51°20.076 3°1.626 269.4 3.3 252 8.6
2004-05-13 12:00:31 51°20.064 3°1.538 263.7 3.3 252 8.7
2004-05-13 12:01:31 51°20.049 3°1.452 260.3 3.4 251 8.8
2004-05-13 12:02:31 51°20.032 3°1.366 258.6 3.3 249 8.7
2004-05-13 12:03:31 51°20.014 3°1.283 257 3.3 254 8.8
2004-05-13 12:04:30 51°19.996 3°1.202 258.8 3.3 250 8.7
2004-05-13 12:05:31 51°19.979 3°1.118 260.6 3.4 250 8.8
2004-05-13 12:06:31 51°19.962 3°1.034 260.9 3.4 243 8.7
2004-05-13 12:07:31 51°19.947 3°0.949 260.6 3.4 247 8.6
2004-05-13 12:08:31 51°19.931 3°0.864 260.3 3.4 261 8.6
2004-05-13 12:09:31 51°19.914 3°0.777 259 3.5 247 8.6
2004-05-13 12:10:31 51°19.897 3°0.69 260.3 3.5 246 8.7
2004-05-13 12:11:31 51°19.881 3°0.604 259.7 3.4 249 8.7
2004-05-13 12:12:31 51°19.864 3°0.517 260.4 3.4 256 8.7
2004-05-13 12:13:31 51°19.848 3°0.429 261 3.4 253 8.7
2004-05-13 12:14:31 51°19.833 3°0.342 262.8 3.4 251 8.6
2004-05-13 12:15:31 51°19.818 3°0.256 261 3.4 254 8.5
2004-05-13 12:16:29 51°19.803 3°0.171 260.3 3.5 254 8.7
2004-05-13 12:17:31 51°19.786 3°0.079 260.2 3.5 257 8.7
2004-05-13 12:18:31 51°19.767 2°59.991 259.2 3.4 251 8.6
2004-05-13 12:19:31 51°19.75 2°59.904 259.8 3.4 254 8.8
2004-05-13 12:20:31 51°19.733 2°59.817 260.1 3.3 253 8.6
2004-05-13 12:21:31 51°19.718 2°59.733 262.4 3.3 249 8.9
2004-05-13 12:22:31 51°19.705 2°59.648 263.5 3.4 261 8.9
2004-05-13 12:23:31 51°19.688 2°59.547 264 5.5 256 8.9
2004-05-13 12:24:31 51°19.676 2°59.377 273.9 6 267 8.8
2004-05-13 12:25:31 51°19.678 2°59.254 288.5 3.8 273 9.4
2004-05-13 12:26:31 51°19.683 2°59.172 292.5 2.7 276 9.2
2004-05-13 12:27:31 51°19.685 2°59.109 294.7 2.1 268 9
2004-05-13 12:28:31 51°19.68 2°58.967 259.3 9.2 257 9.3
2004-05-13 12:29:31 51°19.737 2°58.724 329.4 10.2 324 9.6
2004-05-13 12:30:30 51°19.868 2°58.755 48.7 5.9 43 9.9
2004-05-13 12:31:31 51°19.893 2°58.849 83.2 3.2 88 10
2004-05-13 12:32:31 51°19.898 2°58.924 83.2 2.7 79 9.7
2004-05-13 12:33:31 51°19.904 2°58.997 80.1 2.8 85 9.7
2004-05-13 12:34:31 51°19.91 2°59.07 79.7 2.7 83 9.8
2004-05-13 12:35:31 51°19.917 2°59.139 78.5 2.7 85 9.6
2004-05-13 12:36:31 51°19.925 2°59.206 78.7 2.6 80 9.7
2004-05-13 12:37:31 51°19.932 2°59.27 77.6 2.4 87 9.6
2004-05-13 12:38:31 51°19.937 2°59.33 78.4 2.3 91 9.5
2004-05-13 12:39:31 51°19.942 2°59.388 79.1 2.2 77 9.5
2004-05-13 12:40:31 51°19.947 2°59.447 78.9 2.3 85 9.7
2004-05-13 12:41:31 51°19.952 2°59.506 79.1 2.3 89 9.5
2004-05-13 12:42:31 51°19.958 2°59.564 79.1 2.2 81 9.4
2004-05-13 12:43:31 51°19.962 2°59.622 78.5 2.1 73 9.3
2004-05-13 12:44:31 51°19.968 2°59.679 78.1 2.1 78 9.3
2004-05-13 12:45:31 51°19.973 2°59.735 78 2.2 83 9.4
2004-05-13 12:46:31 51°19.98 2°59.792 75.9 2.2 79 9.3
2004-05-13 12:47:31 51°19.988 2°59.852 74.7 2.4 71 9
2004-05-13 12:48:31 51°19.998 2°59.915 74.1 2.5 79 9.3
2004-05-13 12:49:31 51°20.008 2°59.977 74.7 2.4 73 9.3
2004-05-13 12:50:31 51°20.016 3°0.04 75.1 2.5 81 9.2
2004-05-13 12:51:31 51°20.026 3°0.104 74.6 2.4 77 9.1
2004-05-13 12:52:31 51°20.036 3°0.168 74.7 2.5 68 9
2004-05-13 12:53:31 51°20.045 3°0.234 75.8 2.5 77 9.1
2004-05-13 12:54:35 51°20.055 3°0.303 75 2.6 84 9
2004-05-13 12:55:36 51°20.064 3°0.368 75.3 2.5 79 8.9
2004-05-13 12:56:35 51°20.074 3°0.432 76.2 2.5 78 8.9
2004-05-13 12:57:35 51°20.082 3°0.497 75.4 2.6 78 8.8
2004-05-13 12:58:35 51°20.091 3°0.56 75.4 2.5 70 8.8
2004-05-13 12:59:35 51°20.1 3°0.625 75.8 2.5 75 8.6
2004-05-13 13:00:35 51°20.107 3°0.692 78.9 2.4 83 8.8
2004-05-13 13:01:46 51°20.096 3°0.766 102.1 2.6 118 8.7
2004-05-13 13:02:51 51°20.07 3°0.827 118.6 2.8 140 8.4
2004-05-13 13:03:51 51°20.018 3°0.851 165.7 3.7 180 8.4
2004-05-13 13:04:49 51°19.967 3°0.814 207 3.1 215 8.1
2004-05-13 13:05:50 51°19.932 3°0.76 226.4 2.6 231 8.1
2004-05-13 13:06:49 51°19.908 3°0.71 241.6 2.2 230 8
2004-05-13 13:07:50 51°19.889 3°0.664 252.4 1.9 235 8
2004-05-13 13:08:49 51°19.874 3°0.605 269.9 4.8 265 8
2004-05-13 13:09:51 51°19.935 3°0.443 329.5 8.4 318 8.3
2004-05-13 13:10:51 51°20.045 3°0.283 329 8 316 8.7
2004-05-13 13:11:50 51°20.107 3°0.187 339.6 3.9 318 9.3
2004-05-13 13:12:51 51°20.144 3°0.133 349.2 2.4 315 9.2
2004-05-13 13:13:51 51°20.177 3°0.113 29.9 1.3 7 9.3
2004-05-13 13:14:50 51°20.187 3°0.118 55.6 0.3 29 9.3
2004-05-13 13:15:50 51°20.184 3°0.122 72.2 0.6 163 9.4
2004-05-13 13:16:50 51°20.177 3°0.122 79.5 0.4 189 9.2
2004-05-13 13:17:55 51°20.167 3°0.118 82 0.5 211 9.1
2004-05-13 13:18:55 51°20.158 3°0.112 77.2 0.4 222 9.2
2004-05-13 13:19:57 51°20.151 3°0.106 65.3 0.3 211 9.2
2004-05-13 13:20:55 51°20.15 3°0.106 51.6 0.2 323 9.2
2004-05-13 13:21:57 51°20.157 3°0.106 31.2 0.8 5 9.2
2004-05-13 13:22:56 51°20.177 3°0.09 0.3 2 322 9.4
2004-05-13 13:23:57 51°20.196 2°59.997 281 5.7 262 9.3
2004-05-13 13:24:57 51°20.138 2°59.763 252.4 11.2 251 9
2004-05-13 13:25:55 51°20.054 2°59.444 251.8 14.4 247 9.2
2004-05-13 13:26:57 51°19.959 2°59.074 251.8 14.7 246 9
2004-05-13 13:28:01 51°19.858 2°58.69 251.4 14.7 246 9.1
2004-05-13 13:29:01 51°19.767 2°58.328 252 14.7 250 9.3
2004-05-13 13:30:05 51°19.666 2°57.942 253 14.8 247 9.3
2004-05-13 13:31:06 51°19.571 2°57.574 252.5 14.8 250 9.5
2004-05-13 13:32:05 51°19.481 2°57.218 252.8 14.6 249 9.7
2004-05-13 13:33:05 51°19.386 2°56.855 252.3 14.8 246 9.7
2004-05-13 13:34:05 51°19.292 2°56.492 251.4 14.8 248 10
2004-05-13 13:35:09 51°19.19 2°56.104 251.9 15.1 243 10.2
2004-05-13 13:36:07 51°19.109 2°55.744 255.4 14.9 249 10.1
2004-05-13 13:37:07 51°19.023 2°55.373 255.4 15 251 10.2
2004-05-13 13:38:09 51°18.934 2°54.989 254 14.9 250 10.5
2004-05-13 13:39:09 51°18.848 2°54.618 255.4 14.9 252 10.6
2004-05-13 13:40:09 51°18.762 2°54.247 255.2 14.8 249 10.6
2004-05-13 13:41:09 51°18.677 2°53.876 256.2 14.8 251 10.4
2004-05-13 13:42:09 51°18.588 2°53.507 256.2 15 253 10.5
2004-05-13 13:43:07 51°18.503 2°53.148 254.9 14.8 250 10.4
2004-05-13 13:44:09 51°18.411 2°52.766 253.4 14.9 247 10.4
2004-05-13 13:45:09 51°18.292 2°52.422 239.4 14.8 233 10.2
2004-05-13 13:46:09 51°18.137 2°52.114 232.3 15 227 10.1
2004-05-13 13:47:07 51°17.949 2°51.879 216.7 15 215 9.6
2004-05-13 13:48:09 51°17.739 2°51.65 213.5 14.1 210 9.3
2004-05-13 13:49:09 51°17.521 2°51.475 205.2 13.8 200 9
2004-05-13 13:50:09 51°17.288 2°51.337 200.1 15.8 201 10.5
2004-05-13 13:51:15 51°17.029 2°51.235 193.8 14.4 194 10.2
2004-05-13 13:52:14 51°16.794 2°51.154 191.5 14.4 188 10.1
2004-05-13 13:53:13 51°16.559 2°51.127 184.3 14.6 185 9.8
2004-05-13 13:54:15 51°16.311 2°51.105 184.8 14 186 10
2004-05-13 13:55:15 51°16.069 2°51.075 184 14.8 186 11.7
2004-05-13 13:56:19 51°15.813 2°51.084 175.4 14.2 176 12.2
2004-05-13 13:57:19 51°15.576 2°51.095 176.3 14 177 12.1
2004-05-13 13:58:19 51°15.338 2°51.102 178.3 13.9 178 11.9
2004-05-13 13:59:19 51°15.131 2°51.162 161.7 9.1 163 11.6
2004-05-13 14:00:19 51°15.022 2°51.193 168.3 5.1 178 11.4
2004-05-13 14:01:18 51°14.946 2°51.17 191.4 4.6 195 11.3
2004-05-13 14:02:17 51°14.878 2°51.117 202.7 4.7 211 11
2004-05-13 14:03:19 51°14.811 2°51.046 213 4.7 218 10.8
2004-05-13 14:04:17 51°14.757 2°50.968 224.4 4.5 220 10.7
2004-05-13 14:05:26 51°14.701 2°50.867 232.9 4.3 226 10.7
2004-05-13 14:06:27 51°14.659 2°50.778 234.3 4.1 235 10.7
2004-05-13 14:07:25 51°14.621 2°50.695 239.1 3.8 238 10.4
2004-05-13 14:08:27 51°14.585 2°50.61 243.6 3.7 240 10.5
2004-05-13 14:09:27 51°14.553 2°50.529 244.7 3.6 242 10.5
2004-05-13 14:10:27 51°14.521 2°50.451 243.5 3.5 233 10.4
2004-05-13 14:11:26 51°14.491 2°50.374 243.2 3.5 239 10.2
2004-05-13 14:12:27 51°14.458 2°50.295 241.1 3.5 234 10.2
2004-05-13 14:13:27 51°14.425 2°50.219 239.5 3.5 235 10.1
2004-05-13 14:14:26 51°14.392 2°50.143 238.3 3.5 241 9.9
2004-05-13 14:15:26 51°14.358 2°50.067 240.1 3.5 235 10.1
2004-05-13 14:16:25 51°14.325 2°49.99 241.3 3.6 242 9.9
2004-05-13 14:17:26 51°14.291 2°49.912 242.4 3.6 234 10
2004-05-13 14:18:27 51°14.259 2°49.832 243.4 3.5 237 9.9
2004-05-13 14:19:26 51°14.226 2°49.755 241 3.6 234 10
2004-05-13 14:20:27 51°14.194 2°49.676 244.8 3.4 236 9.9
2004-05-13 14:21:25 51°14.166 2°49.6 248.4 3.4 238 9.7
2004-05-13 14:22:30 51°14.139 2°49.491 272.7 5 254 9.9
2004-05-13 14:23:30 51°14.129 2°49.383 287.4 3.8 259 10.1
2004-05-13 14:24:31 51°14.121 2°49.295 292.5 3.1 261 10.2
2004-05-13 14:25:31 51°14.11 2°49.221 295 2.8 257 10.3
2004-05-13 14:26:30 51°14.099 2°49.156 296.3 2.5 253 10.4
2004-05-13 14:27:31 51°14.107 2°49.065 325 4.5 307 10.4
2004-05-13 14:28:30 51°14.177 2°49.061 41.6 5.2 32 10.9
2004-05-13 14:29:35 51°14.269 2°49.191 51.4 7.9 46 10.8
2004-05-13 14:30:34 51°14.362 2°49.375 61.1 9.6 59 11
2004-05-13 14:31:34 51°14.451 2°49.595 59.6 9.9 55 10.9
2004-05-13 14:32:35 51°14.547 2°49.82 59.4 10.2 54 11.1
2004-05-13 14:33:35 51°14.644 2°50.048 59.8 10.5 56 11.1
2004-05-13 14:34:35 51°14.745 2°50.283 59.6 11 56 11.3
2004-05-13 14:35:34 51°14.852 2°50.53 59.9 12 54 11.4
2004-05-13 14:36:33 51°14.958 2°50.795 62.4 11.9 61 11.1
2004-05-13 14:37:35 51°14.995 2°51.114 90.5 12.1 90 11.2
2004-05-13 14:38:35 51°14.986 2°51.439 91.9 12.5 96 10.9
2004-05-13 14:39:34 51°14.974 2°51.759 96.6 12.6 97 10.3
2004-05-13 14:40:34 51°14.941 2°52.086 101.6 12.4 105 9.8
2004-05-13 14:41:35 51°14.896 2°52.414 101 12 104 9.4
2004-05-13 14:42:33 51°14.839 2°52.72 106.7 12.5 105 9
2004-05-13 14:43:35 51°14.781 2°53.052 103.6 12.5 106 8.8
2004-05-13 14:44:35 51°14.72 2°53.373 110.2 12.9 111 8.7
2004-05-13 14:45:35 51°14.671 2°53.702 101.8 13.3 104 9
2004-05-13 14:46:35 51°14.62 2°54.042 104.8 13.2 106 10.4
2004-05-13 14:47:34 51°14.552 2°54.363 110.4 13 115 10
2004-05-13 14:48:34 51°14.47 2°54.676 112.1 12.4 113 10
2004-05-13 14:49:35 51°14.386 2°54.974 119.8 12.1 119 9.9
2004-05-13 14:50:35 51°14.286 2°55.227 130.1 9.7 126 10.1
2004-05-13 14:51:35 51°14.196 2°55.374 144.2 7 141 10.2
2004-05-13 14:52:35 51°14.098 2°55.462 159.7 6.7 156 10.1
2004-05-13 14:53:35 51°13.986 2°55.54 160.5 7.7 157 10.1
2004-05-13 14:54:34 51°13.867 2°55.617 161.8 7.8 158 8.7
2004-05-13 14:55:35 51°13.755 2°55.712 144.5 7.2 139 8.6